Hauptseite
METAR-TAF:

METAR-TAF

Flughäfen :

Bergamo, Italien

Flughafen Bergamo

Breite: 45-40N, Länge: 009-42E, Höhe: 238 m

Beobachtung

Neuester Wetterbericht von vor 38 Minuten, um 23:20 UTC
Wind 3 kt aus Ost/Nordost, variierte zwischen Nord/Nordwest und Ost/Südost
Temperatur 4°C
Luftfeuchtigkeit 81%
Luftdruck 1018 hPa
Sichtweite 10 km oder mehr
keine Wolken unter 1500 m und keine Kumulonimbus oder Gewitterwolken

METAR: LIME 192320Z 06003KT 330V120 CAVOK 04/01 Q1018 NOSIG

Zeit: 00:58 (23:58 UTC)

Prognose

Neuester Wetterbericht von vor 58 Minuten, um 23:00 UTC
Gültige Prognose vom 20 um 00 UTC bis 20 um 24 UTC
Wind 5 kt aus unterschiedlichen Richtungen
Sichtweite: 8000 m

TAF: LIME 192300Z 2000/2024 VRB05KT 8000 NSC

Wetterbeobachtungen und Prognosen von mehr als 4000 Flughäfen (METAR und TAF Bericht).

Die verfügbaren Stationen werden durch gelbe und rote Markierungen auf der Karte dargestellt.

Führen Sie die Maus auf sie, um den Namen der Station zu sehen.

Darauf klicken, um die Beobachtung von Wetterbeobachtungen und Prognosen zu sehen.

Um die Karte zu ändern : klicken Sie auf den grünen Tasten mit einem schwarzen Kreuz Zum Vergrößern, auf den grünen Button mit einem Gedankenstrich zu verkleinern, oder auf die grünen Pfeile für benachbarte Karten.


METAR-TAF: